sensor_id;sensor_type;location;lat;lon;timestamp;pressure;altitude;pressure_sealevel;temperature;humidity
22753;BME280;11543;43.144;24.684;2022-08-11T00:01:52;98997.53;;;21.41;71.59
22753;BME280;11543;43.144;24.684;2022-08-11T00:04:20;99001.59;;;21.32;71.74
22753;BME280;11543;43.144;24.684;2022-08-11T00:06:48;99001.84;;;21.24;71.51
22753;BME280;11543;43.144;24.684;2022-08-11T00:09:16;98997.25;;;21.18;71.12
22753;BME280;11543;43.144;24.684;2022-08-11T00:11:54;99000.69;;;21.07;70.41
22753;BME280;11543;43.144;24.684;2022-08-11T00:14:22;99001.34;;;21.02;69.98
22753;BME280;11543;43.144;24.684;2022-08-11T00:19:28;98989.03;;;20.86;69.55
22753;BME280;11543;43.144;24.684;2022-08-11T00:21:55;98983.41;;;20.81;69.54
22753;BME280;11543;43.144;24.684;2022-08-11T00:24:22;98990.31;;;20.84;69.47
22753;BME280;11543;43.144;24.684;2022-08-11T00:26:53;98983.16;;;20.89;69.42
22753;BME280;11543;43.144;24.684;2022-08-11T00:29:20;98981.84;;;20.98;69.36
22753;BME280;11543;43.144;24.684;2022-08-11T00:31:49;98988.72;;;21.08;69.14
22753;BME280;11543;43.144;24.684;2022-08-11T00:34:19;98975.25;;;21.13;68.63
22753;BME280;11543;43.144;24.684;2022-08-11T00:39:30;98974.97;;;21.21;67.82
22753;BME280;11543;43.144;24.684;2022-08-11T00:42:26;98975.13;;;21.33;67.44
22753;BME280;11543;43.144;24.684;2022-08-11T00:48:04;98979.50;;;21.40;66.94
22753;BME280;11543;43.144;24.684;2022-08-11T00:53:37;98985.47;;;21.24;67.24
22753;BME280;11543;43.144;24.684;2022-08-11T01:32:36;98981.03;;;20.33;72.67
22753;BME280;11543;43.144;24.684;2022-08-11T01:35:53;98972.47;;;20.23;73.12
22753;BME280;11543;43.144;24.684;2022-08-11T01:55:33;98972.69;;;20.22;72.95
22753;BME280;11543;43.144;24.684;2022-08-11T02:01:27;98974.53;;;20.34;72.52
22753;BME280;11543;43.144;24.684;2022-08-11T02:04:17;98975.38;;;20.42;72.06
22753;BME280;11543;43.144;24.684;2022-08-11T02:07:18;98979.97;;;20.48;71.88
22753;BME280;11543;43.144;24.684;2022-08-11T02:12:45;98971.28;;;20.64;71.26
22753;BME280;11543;43.144;24.684;2022-08-11T02:15:24;98976.50;;;20.72;70.89
22753;BME280;11543;43.144;24.684;2022-08-11T02:18:09;98983.19;;;20.76;70.92
22753;BME280;11543;43.144;24.684;2022-08-11T02:23:31;98981.28;;;20.83;70.43
22753;BME280;11543;43.144;24.684;2022-08-11T02:29:10;98983.59;;;20.86;70.39
22753;BME280;11543;43.144;24.684;2022-08-11T02:31:49;98994.31;;;20.81;70.28
22753;BME280;11543;43.144;24.684;2022-08-11T02:34:47;98990.94;;;20.79;70.03
22753;BME280;11543;43.144;24.684;2022-08-11T02:56:51;98992.97;;;20.46;71.13
22753;BME280;11543;43.144;24.684;2022-08-11T03:05:11;98975.78;;;20.45;71.50
22753;BME280;11543;43.144;24.684;2022-08-11T03:10:28;98978.28;;;20.47;71.84
22753;BME280;11543;43.144;24.684;2022-08-11T03:16:15;98973.44;;;20.55;71.19
22753;BME280;11543;43.144;24.684;2022-08-11T03:19:13;98971.53;;;20.56;71.05
22753;BME280;11543;43.144;24.684;2022-08-11T03:22:21;98972.34;;;20.63;70.71
22753;BME280;11543;43.144;24.684;2022-08-11T03:24:55;98970.47;;;20.57;71.01
22753;BME280;11543;43.144;24.684;2022-08-11T03:30:18;98973.84;;;20.59;70.71
22753;BME280;11543;43.144;24.684;2022-08-11T03:33:07;98972.38;;;20.56;70.29
22753;BME280;11543;43.144;24.684;2022-08-11T03:39:05;98976.81;;;20.38;70.58
22753;BME280;11543;43.144;24.684;2022-08-11T03:44:31;98970.81;;;20.09;70.92
22753;BME280;11543;43.144;24.684;2022-08-11T03:53:16;98980.50;;;19.59;72.93
22753;BME280;11543;43.144;24.684;2022-08-11T03:58:58;98977.78;;;19.52;73.75
22753;BME280;11543;43.144;24.684;2022-08-11T04:04:42;98980.50;;;19.72;73.05
22753;BME280;11543;43.144;24.684;2022-08-11T04:13:27;98993.47;;;19.77;72.69
22753;BME280;11543;43.144;24.684;2022-08-11T04:16:28;98981.94;;;19.75;72.81
22753;BME280;11543;43.144;24.684;2022-08-11T04:19:44;98993.25;;;19.85;72.71
22753;BME280;11543;43.144;24.684;2022-08-11T04:22:45;98981.94;;;19.88;72.45
22753;BME280;11543;43.144;24.684;2022-08-11T04:30:34;98987.59;;;19.99;71.98
22753;BME280;11543;43.144;24.684;2022-08-11T04:40:17;98998.88;;;20.16;71.49
22753;BME280;11543;43.144;24.684;2022-08-11T04:49:24;98999.50;;;20.25;71.38
22753;BME280;11543;43.144;24.684;2022-08-11T04:55:43;99003.50;;;20.16;71.98
22753;BME280;11543;43.144;24.684;2022-08-11T04:58:50;98999.31;;;20.13;71.92
22753;BME280;11543;43.144;24.684;2022-08-11T05:04:49;98998.84;;;20.29;71.35
22753;BME280;11543;43.144;24.684;2022-08-11T05:10:28;98980.38;;;20.45;71.04
22753;BME280;11543;43.144;24.684;2022-08-11T05:13:04;98979.97;;;20.48;70.59
22753;BME280;11543;43.144;24.684;2022-08-11T05:15:54;98973.22;;;20.57;70.89
22753;BME280;11543;43.144;24.684;2022-08-11T05:18:48;98988.25;;;20.73;70.39
22753;BME280;11543;43.144;24.684;2022-08-11T05:21:34;98981.28;;;20.83;69.99
22753;BME280;11543;43.144;24.684;2022-08-11T05:24:21;98982.72;;;20.92;69.98
22753;BME280;11543;43.144;24.684;2022-08-11T05:27:07;98988.94;;;21.06;69.52
22753;BME280;11543;43.144;24.684;2022-08-11T05:30:02;98991.41;;;21.14;69.32
22753;BME280;11543;43.144;24.684;2022-08-11T05:36:16;98982.28;;;21.34;68.85
22753;BME280;11543;43.144;24.684;2022-08-11T05:38:53;98985.56;;;21.42;68.99
22753;BME280;11543;43.144;24.684;2022-08-11T05:41:39;98992.41;;;21.51;68.78
22753;BME280;11543;43.144;24.684;2022-08-11T05:44:26;98993.19;;;21.58;68.71
22753;BME280;11543;43.144;24.684;2022-08-11T05:47:21;98982.44;;;21.63;68.70
22753;BME280;11543;43.144;24.684;2022-08-11T05:50:11;98989.34;;;21.73;68.42
22753;BME280;11543;43.144;24.684;2022-08-11T05:52:56;98981.47;;;21.83;67.71
22753;BME280;11543;43.144;24.684;2022-08-11T05:55:42;98976.16;;;21.88;67.58
22753;BME280;11543;43.144;24.684;2022-08-11T05:58:32;98981.50;;;22.01;67.30
22753;BME280;11543;43.144;24.684;2022-08-11T06:00:58;98991.09;;;22.10;66.91
22753;BME280;11543;43.144;24.684;2022-08-11T06:03:28;98989.75;;;22.19;66.45
22753;BME280;11543;43.144;24.684;2022-08-11T06:05:55;98977.84;;;22.32;66.10
22753;BME280;11543;43.144;24.684;2022-08-11T06:08:32;98986.41;;;22.36;65.83
22753;BME280;11543;43.144;24.684;2022-08-11T06:11:02;98972.59;;;22.49;65.02
22753;BME280;11543;43.144;24.684;2022-08-11T06:13:29;98966.06;;;22.68;63.84
22753;BME280;11543;43.144;24.684;2022-08-11T06:15:55;98965.00;;;22.87;62.84
22753;BME280;11543;43.144;24.684;2022-08-11T06:18:22;98965.19;;;23.04;62.42
22753;BME280;11543;43.144;24.684;2022-08-11T06:20:51;98959.88;;;23.21;61.05
22753;BME280;11543;43.144;24.684;2022-08-11T06:38:14;98934.00;;;24.52;55.14
22753;BME280;11543;43.144;24.684;2022-08-11T06:40:58;98943.22;;;24.74;54.06
22753;BME280;11543;43.144;24.684;2022-08-11T06:46:34;98931.38;;;24.86;53.19
22753;BME280;11543;43.144;24.684;2022-08-11T06:49:09;98941.84;;;24.89;53.73
22753;BME280;11543;43.144;24.684;2022-08-11T06:52:02;98924.59;;;24.76;54.10
22753;BME280;11543;43.144;24.684;2022-08-11T06:54:29;98923.91;;;24.69;53.21
22753;BME280;11543;43.144;24.684;2022-08-11T06:56:57;98947.53;;;24.70;53.48
22753;BME280;11543;43.144;24.684;2022-08-11T06:59:42;98936.75;;;24.81;53.33
22753;BME280;11543;43.144;24.684;2022-08-11T07:02:32;98934.78;;;24.93;53.11
22753;BME280;11543;43.144;24.684;2022-08-11T07:05:01;98945.75;;;25.04;52.17
22753;BME280;11543;43.144;24.684;2022-08-11T07:10:49;98945.31;;;25.24;51.45
22753;BME280;11543;43.144;24.684;2022-08-11T07:13:42;98931.38;;;25.14;51.68
22753;BME280;11543;43.144;24.684;2022-08-11T07:19:32;98942.75;;;25.34;50.94
22753;BME280;11543;43.144;24.684;2022-08-11T07:22:19;98946.25;;;25.47;49.78
22753;BME280;11543;43.144;24.684;2022-08-11T07:25:12;98941.75;;;25.57;49.47
22753;BME280;11543;43.144;24.684;2022-08-11T07:28:01;98929.59;;;25.53;48.72
22753;BME280;11543;43.144;24.684;2022-08-11T07:30:46;98944.25;;;25.59;49.54
22753;BME280;11543;43.144;24.684;2022-08-11T07:33:13;98933.94;;;25.66;48.99
22753;BME280;11543;43.144;24.684;2022-08-11T07:35:48;98940.66;;;25.92;47.65
22753;BME280;11543;43.144;24.684;2022-08-11T07:38:24;98934.72;;;26.17;46.91
22753;BME280;11543;43.144;24.684;2022-08-11T07:41:09;98938.28;;;26.34;46.59
22753;BME280;11543;43.144;24.684;2022-08-11T07:43:36;98936.88;;;26.53;46.24
22753;BME280;11543;43.144;24.684;2022-08-11T07:46:05;98920.31;;;26.48;45.94
22753;BME280;11543;43.144;24.684;2022-08-11T07:48:50;98923.25;;;26.63;46.31
22753;BME280;11543;43.144;24.684;2022-08-11T07:51:35;98936.66;;;26.82;45.25
22753;BME280;11543;43.144;24.684;2022-08-11T07:54:20;98927.91;;;26.85;44.96
22753;BME280;11543;43.144;24.684;2022-08-11T07:56:51;98935.34;;;27.06;44.15
22753;BME280;11543;43.144;24.684;2022-08-11T07:59:18;98943.13;;;27.14;43.48
22753;BME280;11543;43.144;24.684;2022-08-11T08:02:02;98924.94;;;27.13;43.54
22753;BME280;11543;43.144;24.684;2022-08-11T08:04:47;98922.81;;;27.20;43.96
22753;BME280;11543;43.144;24.684;2022-08-11T08:07:31;98914.06;;;27.28;43.57
22753;BME280;11543;43.144;24.684;2022-08-11T08:10:18;98938.56;;;27.57;43.55
22753;BME280;11543;43.144;24.684;2022-08-11T08:13:03;98927.75;;;27.77;43.14
22753;BME280;11543;43.144;24.684;2022-08-11T08:15:49;98921.78;;;27.90;42.21
22753;BME280;11543;43.144;24.684;2022-08-11T08:18:35;98909.22;;;28.15;41.12
22753;BME280;11543;43.144;24.684;2022-08-11T08:21:03;98919.25;;;28.31;41.07
22753;BME280;11543;43.144;24.684;2022-08-11T08:23:42;98908.88;;;28.53;40.98
22753;BME280;11543;43.144;24.684;2022-08-11T08:26:11;98921.41;;;28.81;40.27
22753;BME280;11543;43.144;24.684;2022-08-11T08:29:00;98910.16;;;28.98;39.87
22753;BME280;11543;43.144;24.684;2022-08-11T08:31:45;98906.59;;;29.23;39.93
22753;BME280;11543;43.144;24.684;2022-08-11T08:34:13;98911.03;;;29.39;39.29
22753;BME280;11543;43.144;24.684;2022-08-11T08:36:42;98899.16;;;29.44;39.52
22753;BME280;11543;43.144;24.684;2022-08-11T08:39:08;98907.75;;;29.58;39.55
22753;BME280;11543;43.144;24.684;2022-08-11T08:41:35;98899.16;;;29.79;38.29
22753;BME280;11543;43.144;24.684;2022-08-11T08:44:07;98892.50;;;29.96;38.00
22753;BME280;11543;43.144;24.684;2022-08-11T08:46:41;98896.91;;;30.17;38.25
22753;BME280;11543;43.144;24.684;2022-08-11T08:49:09;98910.13;;;30.40;37.60
22753;BME280;11543;43.144;24.684;2022-08-11T08:51:57;98912.28;;;30.59;37.05
22753;BME280;11543;43.144;24.684;2022-08-11T08:54:31;98907.28;;;30.66;36.59
22753;BME280;11543;43.144;24.684;2022-08-11T08:56:59;98910.81;;;30.77;36.08
22753;BME280;11543;43.144;24.684;2022-08-11T08:59:30;98899.13;;;30.85;35.83
22753;BME280;11543;43.144;24.684;2022-08-11T09:02:03;98908.78;;;30.92;35.41
22753;BME280;11543;43.144;24.684;2022-08-11T09:04:29;98904.66;;;30.85;36.29
22753;BME280;11543;43.144;24.684;2022-08-11T09:06:58;98900.53;;;30.82;36.36
22753;BME280;11543;43.144;24.684;2022-08-11T09:09:25;98904.09;;;30.88;36.43
22753;BME280;11543;43.144;24.684;2022-08-11T09:11:53;98882.22;;;30.86;36.63
22753;BME280;11543;43.144;24.684;2022-08-11T09:14:22;98875.00;;;30.90;35.65
22753;BME280;11543;43.144;24.684;2022-08-11T09:16:49;98898.50;;;30.98;35.77
22753;BME280;11543;43.144;24.684;2022-08-11T09:19:17;98891.28;;;30.97;35.86
22753;BME280;11543;43.144;24.684;2022-08-11T09:21:46;98872.72;;;30.97;35.58
22753;BME280;11543;43.144;24.684;2022-08-11T09:24:32;98878.16;;;31.18;35.06
22753;BME280;11543;43.144;24.684;2022-08-11T09:27:19;98892.47;;;31.35;35.63
22753;BME280;11543;43.144;24.684;2022-08-11T09:29:46;98870.78;;;31.42;34.77
22753;BME280;11543;43.144;24.684;2022-08-11T09:32:12;98876.41;;;31.61;34.65
22753;BME280;11543;43.144;24.684;2022-08-11T09:34:39;98876.84;;;31.78;35.37
22753;BME280;11543;43.144;24.684;2022-08-11T09:37:05;98875.75;;;32.03;34.77
22753;BME280;11543;43.144;24.684;2022-08-11T09:39:52;98870.28;;;32.22;33.25
22753;BME280;11543;43.144;24.684;2022-08-11T09:42:37;98856.16;;;32.18;32.76
22753;BME280;11543;43.144;24.684;2022-08-11T09:45:22;98875.25;;;31.96;33.03
22753;BME280;11543;43.144;24.684;2022-08-11T09:47:48;98861.66;;;31.71;33.97
22753;BME280;11543;43.144;24.684;2022-08-11T09:50:17;98848.38;;;31.62;34.55
22753;BME280;11543;43.144;24.684;2022-08-11T09:52:44;98866.28;;;31.80;34.48
22753;BME280;11543;43.144;24.684;2022-08-11T09:55:13;98860.72;;;32.04;34.05
22753;BME280;11543;43.144;24.684;2022-08-11T09:57:44;98851.19;;;32.15;34.13
22753;BME280;11543;43.144;24.684;2022-08-11T10:00:32;98855.34;;;32.42;33.93
22753;BME280;11543;43.144;24.684;2022-08-11T10:03:03;98846.19;;;32.60;32.63
22753;BME280;11543;43.144;24.684;2022-08-11T10:05:31;98854.91;;;32.72;33.08
22753;BME280;11543;43.144;24.684;2022-08-11T10:08:17;98854.63;;;32.92;33.17
22753;BME280;11543;43.144;24.684;2022-08-11T10:10:45;98848.34;;;33.06;33.07
22753;BME280;11543;43.144;24.684;2022-08-11T10:13:19;98858.69;;;33.19;33.24
22753;BME280;11543;43.144;24.684;2022-08-11T10:15:53;98841.19;;;33.18;33.02
22753;BME280;11543;43.144;24.684;2022-08-11T10:18:29;98835.31;;;33.39;32.37
22753;BME280;11543;43.144;24.684;2022-08-11T10:23:53;98846.50;;;33.80;31.19
22753;BME280;11543;43.144;24.684;2022-08-11T10:26:38;98848.03;;;33.91;31.62
22753;BME280;11543;43.144;24.684;2022-08-11T10:29:22;98852.78;;;34.04;31.45
22753;BME280;11543;43.144;24.684;2022-08-11T10:32:09;98848.34;;;34.03;31.49
22753;BME280;11543;43.144;24.684;2022-08-11T10:34:55;98849.91;;;33.96;31.02
22753;BME280;11543;43.144;24.684;2022-08-11T10:37:22;98843.84;;;33.75;32.16
22753;BME280;11543;43.144;24.684;2022-08-11T10:39:50;98844.31;;;33.82;32.37
22753;BME280;11543;43.144;24.684;2022-08-11T10:42:16;98846.50;;;33.99;31.76
22753;BME280;11543;43.144;24.684;2022-08-11T10:45:04;98849.91;;;34.37;30.79
22753;BME280;11543;43.144;24.684;2022-08-11T10:47:53;98843.25;;;34.60;30.55
22753;BME280;11543;43.144;24.684;2022-08-11T10:50:19;98829.06;;;34.48;31.01
22753;BME280;11543;43.144;24.684;2022-08-11T10:53:06;98827.41;;;34.47;31.07
22753;BME280;11543;43.144;24.684;2022-08-11T10:55:50;98816.56;;;34.45;30.49
22753;BME280;11543;43.144;24.684;2022-08-11T10:58:36;98825.75;;;34.46;30.28
22753;BME280;11543;43.144;24.684;2022-08-11T11:01:27;98829.91;;;34.35;29.79
22753;BME280;11543;43.144;24.684;2022-08-11T11:04:00;98811.94;;;34.27;30.60
22753;BME280;11543;43.144;24.684;2022-08-11T11:11:48;98809.03;;;34.46;29.74
22753;BME280;11543;43.144;24.684;2022-08-11T11:14:35;98798.63;;;34.10;29.95
22753;BME280;11543;43.144;24.684;2022-08-11T11:17:29;98800.19;;;33.89;30.46
22753;BME280;11543;43.144;24.684;2022-08-11T11:20:21;98795.25;;;33.86;30.52
22753;BME280;11543;43.144;24.684;2022-08-11T11:22:54;98797.31;;;33.94;30.65
22753;BME280;11543;43.144;24.684;2022-08-11T11:36:55;98788.97;;;34.71;29.71
22753;BME280;11543;43.144;24.684;2022-08-11T11:39:31;98794.28;;;34.95;29.12
22753;BME280;11543;43.144;24.684;2022-08-11T11:42:00;98783.94;;;34.96;28.19
22753;BME280;11543;43.144;24.684;2022-08-11T11:44:28;98796.13;;;35.00;28.96
22753;BME280;11543;43.144;24.684;2022-08-11T11:46:57;98780.03;;;34.97;28.52
22753;BME280;11543;43.144;24.684;2022-08-11T11:49:27;98790.53;;;35.00;29.10
22753;BME280;11543;43.144;24.684;2022-08-11T11:51:55;98772.41;;;34.89;29.14
22753;BME280;11543;43.144;24.684;2022-08-11T11:54:24;98770.69;;;35.01;29.06
22753;BME280;11543;43.144;24.684;2022-08-11T11:56:52;98777.47;;;35.09;29.17
22753;BME280;11543;43.144;24.684;2022-08-11T11:59:23;98790.41;;;35.27;28.66
22753;BME280;11543;43.144;24.684;2022-08-11T12:02:10;98776.72;;;35.39;28.87
22753;BME280;11543;43.144;24.684;2022-08-11T12:04:37;98784.66;;;35.55;28.57
22753;BME280;11543;43.144;24.684;2022-08-11T12:07:06;98782.78;;;35.64;28.79
22753;BME280;11543;43.144;24.684;2022-08-11T12:27:54;98758.44;;;35.56;28.35
22753;BME280;11543;43.144;24.684;2022-08-11T12:30:23;98751.81;;;35.52;28.75
22753;BME280;11543;43.144;24.684;2022-08-11T12:32:49;98742.69;;;35.60;28.86
22753;BME280;11543;43.144;24.684;2022-08-11T12:35:16;98739.97;;;35.77;27.99
22753;BME280;11543;43.144;24.684;2022-08-11T12:37:48;98749.91;;;35.92;27.67
22753;BME280;11543;43.144;24.684;2022-08-11T12:40:23;98733.25;;;35.78;27.55
22753;BME280;11543;43.144;24.684;2022-08-11T12:43:13;98742.13;;;35.80;28.13
22753;BME280;11543;43.144;24.684;2022-08-11T12:46:00;98733.97;;;35.92;28.15
22753;BME280;11543;43.144;24.684;2022-08-11T12:48:31;98736.13;;;35.95;28.21
22753;BME280;11543;43.144;24.684;2022-08-11T12:51:20;98729.06;;;36.06;27.76
22753;BME280;11543;43.144;24.684;2022-08-11T12:54:26;98715.28;;;36.19;27.54
22753;BME280;11543;43.144;24.684;2022-08-11T12:57:08;98727.88;;;36.47;26.70
22753;BME280;11543;43.144;24.684;2022-08-11T12:59:54;98707.97;;;36.57;26.59
22753;BME280;11543;43.144;24.684;2022-08-11T13:02:39;98714.06;;;36.77;26.14
22753;BME280;11543;43.144;24.684;2022-08-11T13:05:23;98710.28;;;36.81;26.77
22753;BME280;11543;43.144;24.684;2022-08-11T13:07:49;98712.88;;;36.95;26.52
22753;BME280;11543;43.144;24.684;2022-08-11T13:10:16;98712.50;;;37.14;25.95
22753;BME280;11543;43.144;24.684;2022-08-11T13:13:05;98723.53;;;37.27;25.18
22753;BME280;11543;43.144;24.684;2022-08-11T13:15:31;98723.03;;;37.25;25.57
22753;BME280;11543;43.144;24.684;2022-08-11T13:17:58;98717.94;;;37.10;25.47
22753;BME280;11543;43.144;24.684;2022-08-11T13:20:25;98716.66;;;36.99;25.89
22753;BME280;11543;43.144;24.684;2022-08-11T13:22:54;98704.81;;;37.02;25.55
22753;BME280;11543;43.144;24.684;2022-08-11T13:25:22;98713.03;;;37.07;25.08
22753;BME280;11543;43.144;24.684;2022-08-11T13:27:50;98699.88;;;36.99;25.75
22753;BME280;11543;43.144;24.684;2022-08-11T13:30:17;98692.50;;;36.86;25.27
22753;BME280;11543;43.144;24.684;2022-08-11T13:33:02;98706.13;;;36.96;25.11
22753;BME280;11543;43.144;24.684;2022-08-11T13:35:30;98706.50;;;36.86;25.22
22753;BME280;11543;43.144;24.684;2022-08-11T13:37:56;98691.69;;;36.77;25.92
22753;BME280;11543;43.144;24.684;2022-08-11T13:40:23;98704.19;;;36.88;25.84
22753;BME280;11543;43.144;24.684;2022-08-11T13:42:50;98694.94;;;36.96;26.05
22753;BME280;11543;43.144;24.684;2022-08-11T13:45:17;98686.38;;;37.01;25.75
22753;BME280;11543;43.144;24.684;2022-08-11T13:47:44;98684.19;;;37.15;25.09
22753;BME280;11543;43.144;24.684;2022-08-11T13:50:10;98681.41;;;37.15;25.29
22753;BME280;11543;43.144;24.684;2022-08-11T13:52:38;98689.47;;;37.25;25.65
22753;BME280;11543;43.144;24.684;2022-08-11T13:55:06;98678.13;;;37.30;25.30
22753;BME280;11543;43.144;24.684;2022-08-11T13:57:33;98690.09;;;37.40;25.02
22753;BME280;11543;43.144;24.684;2022-08-11T14:00:00;98688.44;;;37.39;24.86
22753;BME280;11543;43.144;24.684;2022-08-11T14:02:39;98681.06;;;37.25;25.19
22753;BME280;11543;43.144;24.684;2022-08-11T14:05:26;98683.03;;;37.16;25.34
22753;BME280;11543;43.144;24.684;2022-08-11T14:07:59;98687.03;;;37.07;25.31
22753;BME280;11543;43.144;24.684;2022-08-11T14:10:27;98681.16;;;36.91;25.24
22753;BME280;11543;43.144;24.684;2022-08-11T14:12:59;98678.69;;;36.72;25.29
22753;BME280;11543;43.144;24.684;2022-08-11T14:15:46;98678.22;;;36.44;25.54
22753;BME280;11543;43.144;24.684;2022-08-11T14:18:18;98689.81;;;36.20;25.68
22753;BME280;11543;43.144;24.684;2022-08-11T14:20:48;98690.28;;;35.96;25.96
22753;BME280;11543;43.144;24.684;2022-08-11T14:23:53;98689.59;;;35.51;26.18
22753;BME280;11543;43.144;24.684;2022-08-11T14:26:24;98686.13;;;35.15;26.88
22753;BME280;11543;43.144;24.684;2022-08-11T14:28:57;98702.59;;;34.94;27.68
22753;BME280;11543;43.144;24.684;2022-08-11T14:31:25;98692.56;;;34.70;27.75
22753;BME280;11543;43.144;24.684;2022-08-11T14:33:54;98697.72;;;34.63;27.61
22753;BME280;11543;43.144;24.684;2022-08-11T14:36:23;98701.84;;;34.43;28.11
22753;BME280;11543;43.144;24.684;2022-08-11T14:38:50;98710.63;;;34.37;28.20
22753;BME280;11543;43.144;24.684;2022-08-11T14:41:22;98695.69;;;34.33;28.06
22753;BME280;11543;43.144;24.684;2022-08-11T14:44:08;98694.75;;;34.24;28.21
22753;BME280;11543;43.144;24.684;2022-08-11T14:47:06;98699.94;;;34.16;28.55
22753;BME280;11543;43.144;24.684;2022-08-11T14:49:36;98683.69;;;33.96;28.31
22753;BME280;11543;43.144;24.684;2022-08-11T14:52:06;98694.59;;;34.06;28.81
22753;BME280;11543;43.144;24.684;2022-08-11T14:54:33;98682.00;;;34.09;28.55
22753;BME280;11543;43.144;24.684;2022-08-11T14:57:20;98671.81;;;34.04;28.29
22753;BME280;11543;43.144;24.684;2022-08-11T14:59:48;98684.13;;;33.90;28.66
22753;BME280;11543;43.144;24.684;2022-08-11T15:02:15;98684.59;;;33.78;28.92
22753;BME280;11543;43.144;24.684;2022-08-11T15:05:02;98681.63;;;33.61;29.07
22753;BME280;11543;43.144;24.684;2022-08-11T15:07:28;98669.88;;;33.36;29.39
22753;BME280;11543;43.144;24.684;2022-08-11T15:10:01;98675.41;;;33.22;29.54
22753;BME280;11543;43.144;24.684;2022-08-11T15:12:28;98675.47;;;33.04;29.89
22753;BME280;11543;43.144;24.684;2022-08-11T15:14:54;98672.94;;;32.88;29.84
22753;BME280;11543;43.144;24.684;2022-08-11T15:17:39;98687.22;;;32.82;29.87
22753;BME280;11543;43.144;24.684;2022-08-11T15:20:12;98682.22;;;32.65;30.23
22753;BME280;11543;43.144;24.684;2022-08-11T15:23:16;98676.69;;;32.46;30.55
22753;BME280;11543;43.144;24.684;2022-08-11T15:26:20;98683.53;;;32.35;31.06
22753;BME280;11543;43.144;24.684;2022-08-11T15:29:43;98676.50;;;32.24;31.24
22753;BME280;11543;43.144;24.684;2022-08-11T15:32:28;98673.09;;;32.08;31.52
22753;BME280;11543;43.144;24.684;2022-08-11T15:39:12;98648.59;;;31.73;31.42
22753;BME280;11543;43.144;24.684;2022-08-11T15:41:50;98680.69;;;31.79;31.48
22753;BME280;11543;43.144;24.684;2022-08-11T15:44:40;98676.19;;;31.83;31.55
22753;BME280;11543;43.144;24.684;2022-08-11T15:47:28;98676.19;;;31.83;31.72
22753;BME280;11543;43.144;24.684;2022-08-11T15:50:01;98672.53;;;31.87;31.71
22753;BME280;11543;43.144;24.684;2022-08-11T15:52:32;98672.22;;;31.89;31.94
22753;BME280;11543;43.144;24.684;2022-08-11T15:54:59;98661.19;;;31.84;31.95
22753;BME280;11543;43.144;24.684;2022-08-11T15:57:31;98667.72;;;31.93;31.49
22753;BME280;11543;43.144;24.684;2022-08-11T16:00:17;98676.03;;;31.93;31.46
22753;BME280;11543;43.144;24.684;2022-08-11T16:03:02;98673.94;;;31.85;31.74
22753;BME280;11543;43.144;24.684;2022-08-11T16:05:48;98676.84;;;31.75;31.32
22753;BME280;11543;43.144;24.684;2022-08-11T16:08:19;98679.34;;;31.76;31.40
22753;BME280;11543;43.144;24.684;2022-08-11T16:10:49;98674.53;;;31.58;31.87
22753;BME280;11543;43.144;24.684;2022-08-11T16:13:20;98672.44;;;31.50;31.85
22753;BME280;11543;43.144;24.684;2022-08-11T16:16:07;98660.16;;;31.32;32.28
22753;BME280;11543;43.144;24.684;2022-08-11T16:18:55;98675.16;;;31.31;32.60
22753;BME280;11543;43.144;24.684;2022-08-11T16:21:28;98671.41;;;31.12;32.73
22753;BME280;11543;43.144;24.684;2022-08-11T16:23:56;98682.56;;;31.06;32.94
22753;BME280;11543;43.144;24.684;2022-08-11T16:26:24;98676.59;;;30.94;32.85
22753;BME280;11543;43.144;24.684;2022-08-11T16:28:57;98687.75;;;30.84;33.20
22753;BME280;11543;43.144;24.684;2022-08-11T16:31:25;98680.66;;;30.73;33.60
22753;BME280;11543;43.144;24.684;2022-08-11T16:33:53;98680.22;;;30.61;33.61
22753;BME280;11543;43.144;24.684;2022-08-11T16:36:22;98683.00;;;30.56;33.93
22753;BME280;11543;43.144;24.684;2022-08-11T16:39:09;98692.47;;;30.50;33.86
22753;BME280;11543;43.144;24.684;2022-08-11T16:41:46;98691.97;;;30.42;34.21
22753;BME280;11543;43.144;24.684;2022-08-11T16:44:35;98679.59;;;30.25;34.01
22753;BME280;11543;43.144;24.684;2022-08-11T16:47:31;98673.31;;;30.14;34.55
22753;BME280;11543;43.144;24.684;2022-08-11T16:49:57;98674.47;;;30.08;34.72
22753;BME280;11543;43.144;24.684;2022-08-11T16:52:23;98675.59;;;30.02;34.58
22753;BME280;11543;43.144;24.684;2022-08-11T16:54:49;98690.50;;;30.01;34.81
22753;BME280;11543;43.144;24.684;2022-08-11T16:57:25;98680.06;;;29.93;35.34
22753;BME280;11543;43.144;24.684;2022-08-11T17:00:13;98688.09;;;29.89;35.72
22753;BME280;11543;43.144;24.684;2022-08-11T17:02:50;98689.50;;;29.87;35.75
22753;BME280;11543;43.144;24.684;2022-08-11T17:05:42;98704.44;;;29.86;35.70
22753;BME280;11543;43.144;24.684;2022-08-11T17:08:42;98696.97;;;29.86;35.74
22753;BME280;11543;43.144;24.684;2022-08-11T17:11:54;98703.91;;;29.78;36.19
22753;BME280;11543;43.144;24.684;2022-08-11T17:14:48;98712.50;;;29.77;35.90
22753;BME280;11543;43.144;24.684;2022-08-11T17:17:22;98693.47;;;29.65;36.31
22753;BME280;11543;43.144;24.684;2022-08-11T17:19:52;98703.97;;;29.63;36.06
22753;BME280;11543;43.144;24.684;2022-08-11T17:22:21;98713.94;;;29.64;36.61
22753;BME280;11543;43.144;24.684;2022-08-11T17:25:07;98703.19;;;29.53;36.53
22753;BME280;11543;43.144;24.684;2022-08-11T17:27:34;98706.81;;;29.48;36.45
22753;BME280;11543;43.144;24.684;2022-08-11T17:30:04;98714.50;;;29.41;36.45
22753;BME280;11543;43.144;24.684;2022-08-11T17:32:38;98707.91;;;29.27;37.07
22753;BME280;11543;43.144;24.684;2022-08-11T17:35:27;98733.31;;;29.29;37.16
22753;BME280;11543;43.144;24.684;2022-08-11T17:38:19;98718.44;;;29.14;36.85